Terminal Aerodrome Forecast
Issued by NWS

Home | Current Version | Previous Version | Text Only | Print | Product List | Glossary On
Versions: 1 2 3 4 5 6 7 8 9 10 11 12 13 14 15 16 17 18 19
000
FTUS44 KHGX 231503 AAC
TAFSGR
TAF AMD
KSGR 231503Z 2315/2412 16007KT P6SM OVC005
      TEMPO 2315/2316 SCT005 SCT020
     FM231600 16010KT P6SM SCT020
     FM240100 16008KT P6SM FEW040
      TEMPO 2410/2412 6SM BR BKN010=

USA.gov is the U.S. government's official web portal to all federal, state and local government web resources and services.